createdAt,value
2023-02-19T00:01:40.476Z,99127.75
2023-02-19T00:04:22.152Z,99138.08
2023-02-19T00:06:53.751Z,99135.88
2023-02-19T00:09:43.474Z,99137.56
2023-02-19T00:12:13.564Z,99137.56
2023-02-19T00:14:44.429Z,99136.40
2023-02-19T00:17:13.565Z,99137.11
2023-02-19T00:19:44.462Z,99131.87
2023-02-19T00:22:13.786Z,99135.43
2023-02-19T00:24:44.222Z,99128.64
2023-02-19T00:27:13.492Z,99131.55
2023-02-19T00:29:44.328Z,99125.28
2023-02-19T00:32:15.730Z,99134.45
2023-02-19T00:34:45.258Z,99127.86
2023-02-19T00:37:14.925Z,99121.27
2023-02-19T00:39:47.515Z,99124.69
2023-02-19T00:42:16.558Z,99128.77
2023-02-19T00:44:47.142Z,99128.11
2023-02-19T00:47:16.300Z,99136.95
2023-02-19T00:49:45.499Z,99133.08
2023-02-19T00:52:14.111Z,99134.11
2023-02-19T00:54:43.797Z,99132.91
2023-02-19T00:57:12.713Z,99143.43
2023-02-19T00:59:42.966Z,99140.39
2023-02-19T01:02:13.232Z,99145.81
2023-02-19T01:04:43.333Z,99151.89
2023-02-19T01:07:11.924Z,99148.86
2023-02-19T01:09:41.459Z,99151.38
2023-02-19T01:12:10.407Z,99151.89
2023-02-19T01:14:39.800Z,99158.00
2023-02-19T01:17:10.259Z,99162.39
2023-02-19T01:19:40.667Z,99158.66
2023-02-19T01:22:09.671Z,99161.04
2023-02-19T01:24:39.465Z,99151.38
2023-02-19T01:27:08.323Z,99151.89
2023-02-19T01:29:38.482Z,99146.14
2023-02-19T01:32:08.863Z,99146.14
2023-02-19T01:34:39.514Z,99153.77
2023-02-19T01:37:10.240Z,99161.75
2023-02-19T01:39:39.615Z,99161.23
2023-02-19T01:42:16.784Z,99159.52
2023-02-19T01:44:51.191Z,99171.91
2023-02-19T01:47:21.320Z,99164.99
2023-02-19T01:49:54.843Z,99166.35
2023-02-19T01:52:32.602Z,99169.58
2023-02-19T01:55:02.639Z,99169.39
2023-02-19T01:57:36.198Z,99173.45
2023-02-19T02:00:11.027Z,99179.02
2023-02-19T02:02:46.034Z,99174.60
2023-02-19T02:05:42.033Z,99178.67
2023-02-19T02:08:30.443Z,99176.98
2023-02-19T02:10:59.311Z,99188.19
2023-02-19T02:13:33.577Z,99190.57
2023-02-19T02:16:25.730Z,99199.22
2023-02-19T02:19:34.561Z,99199.79
2023-02-19T02:22:12.781Z,99201.84
2023-02-19T02:24:48.127Z,99207.64
2023-02-19T02:27:56.946Z,99209.37
2023-02-19T02:30:57.257Z,99211.77
2023-02-19T02:33:48.646Z,99217.88
2023-02-19T02:36:37.204Z,99224.99
2023-02-19T02:39:09.934Z,99217.70
2023-02-19T02:41:44.398Z,99217.88
2023-02-19T02:44:14.283Z,99219.23
2023-02-19T02:46:43.925Z,99214.84
2023-02-19T02:49:19.947Z,99215.36
2023-02-19T02:51:52.162Z,99222.00
2023-02-19T02:54:45.028Z,99225.41
2023-02-19T02:57:16.449Z,99224.42
2023-02-19T02:59:49.050Z,99230.41
2023-02-19T03:02:31.214Z,99240.59
2023-02-19T03:05:34.050Z,99246.06
2023-02-19T03:08:12.134Z,99248.30
2023-02-19T03:10:49.054Z,99252.59
2023-02-19T03:13:47.380Z,99252.77
2023-02-19T03:16:49.332Z,99252.77
2023-02-19T03:19:19.297Z,99251.41
2023-02-19T03:22:02.773Z,99252.11
2023-02-19T03:24:53.274Z,99254.02
2023-02-19T03:27:28.764Z,99255.74
2023-02-19T03:29:59.068Z,99256.63
2023-02-19T03:33:02.613Z,99262.37
2023-02-19T03:35:32.947Z,99260.36
2023-02-19T03:38:18.300Z,99258.34
2023-02-19T03:41:07.468Z,99265.16
2023-02-19T03:43:52.228Z,99268.05
2023-02-19T03:46:31.831Z,99281.77
2023-02-19T03:49:05.911Z,99286.53
2023-02-19T03:51:46.912Z,99284.66
2023-02-19T03:54:25.309Z,99291.25
2023-02-19T03:57:04.615Z,99298.69
2023-02-19T03:59:57.340Z,99296.82
2023-02-19T04:02:38.863Z,99289.20
2023-02-19T04:05:18.629Z,99290.41
2023-02-19T04:07:50.867Z,99282.83
2023-02-19T04:10:22.232Z,99293.37
2023-02-19T04:13:01.730Z,99289.66
2023-02-19T04:15:33.166Z,99287.64
2023-02-19T04:18:07.754Z,99283.95
2023-02-19T04:20:40.638Z,99283.61
2023-02-19T04:23:09.395Z,99288.70
2023-02-19T04:25:42.433Z,99297.00
2023-02-19T04:28:11.149Z,99300.58
2023-02-19T04:30:40.391Z,99301.78
2023-02-19T04:33:09.104Z,99308.41
2023-02-19T04:35:38.817Z,99308.25
2023-02-19T04:38:08.759Z,99314.17
2023-02-19T04:40:37.849Z,99327.05
2023-02-19T04:43:06.770Z,99325.03
2023-02-19T04:45:37.583Z,99319.64
2023-02-19T04:48:06.534Z,99335.91
2023-02-19T04:50:37.341Z,99333.55
2023-02-19T04:53:07.554Z,99335.08
2023-02-19T04:55:39.463Z,99323.92
2023-02-19T04:58:09.030Z,99323.73
2023-02-19T05:00:37.768Z,99337.95
2023-02-19T05:03:08.163Z,99328.15
2023-02-19T05:05:39.070Z,99338.64
2023-02-19T05:08:09.199Z,99341.53
2023-02-19T05:10:39.094Z,99343.56
2023-02-19T05:13:10.414Z,99345.78
2023-02-19T05:15:40.480Z,99351.20
2023-02-19T05:18:09.337Z,99355.61
2023-02-19T05:20:39.333Z,99361.55
2023-02-19T05:23:08.031Z,99363.07
2023-02-19T05:25:36.823Z,99364.09
2023-02-19T05:28:17.989Z,99361.38
2023-02-19T05:30:52.165Z,99363.24
2023-02-19T05:33:24.128Z,99366.46
2023-02-19T05:35:55.249Z,99362.41
2023-02-19T05:38:24.292Z,99368.34
2023-02-19T05:40:54.348Z,99363.44
2023-02-19T05:43:25.539Z,99374.26
2023-02-19T05:45:56.139Z,99371.55
2023-02-19T05:48:25.918Z,99381.53
2023-02-19T05:51:07.746Z,99386.09
2023-02-19T05:53:38.232Z,99383.39
2023-02-19T05:56:29.616Z,99385.92
2023-02-19T05:58:58.654Z,99394.55
2023-02-19T06:01:28.820Z,99390.83
2023-02-19T06:03:57.961Z,99390.14
2023-02-19T06:06:28.279Z,99394.20
2023-02-19T06:08:57.426Z,99398.27
2023-02-19T06:11:26.943Z,99412.63
2023-02-19T06:13:55.888Z,99412.46
2023-02-19T06:16:24.624Z,99404.67
2023-02-19T06:18:54.913Z,99403.15
2023-02-19T06:21:23.509Z,99400.09
2023-02-19T06:23:52.250Z,99398.23
2023-02-19T06:26:24.040Z,99401.78
2023-02-19T06:28:53.391Z,99389.94
2023-02-19T06:31:23.949Z,99395.84
2023-02-19T06:33:52.539Z,99394.49
2023-02-19T06:36:21.998Z,99396.85
2023-02-19T06:38:50.511Z,99402.94
2023-02-19T06:41:21.338Z,99403.94
2023-02-19T06:43:50.075Z,99402.58
2023-02-19T06:46:19.188Z,99403.60
2023-02-19T06:48:48.319Z,99407.66
2023-02-19T06:51:19.078Z,99409.36
2023-02-19T06:53:47.826Z,99417.81
2023-02-19T06:56:34.471Z,99416.47
2023-02-19T06:59:07.309Z,99416.80
2023-02-19T07:01:36.592Z,99405.30
2023-02-19T07:04:05.304Z,99407.85
2023-02-19T07:06:34.729Z,99399.73
2023-02-19T07:09:05.784Z,99401.42
2023-02-19T07:11:38.532Z,99403.61
2023-02-19T07:14:08.728Z,99414.78
2023-02-19T07:16:39.360Z,99405.13
2023-02-19T07:19:09.439Z,99406.98
2023-02-19T07:21:39.118Z,99405.78
2023-02-19T07:24:09.612Z,99408.68
2023-02-19T07:26:39.987Z,99408.16
2023-02-19T07:29:09.780Z,99409.31
2023-02-19T07:31:38.551Z,99409.62
2023-02-19T07:34:07.994Z,99398.60
2023-02-19T07:36:36.798Z,99390.28
2023-02-19T07:39:05.708Z,99399.58
2023-02-19T07:41:35.460Z,99395.52
2023-02-19T07:44:05.583Z,99404.13
2023-02-19T07:46:36.492Z,99420.03
2023-02-19T07:49:06.864Z,99427.11
2023-02-19T07:51:38.929Z,99413.87
2023-02-19T07:54:09.289Z,99410.97
2023-02-19T07:56:38.210Z,99422.11
2023-02-19T07:59:06.816Z,99420.38
2023-02-19T08:01:55.777Z,99430.81
2023-02-19T08:04:24.546Z,99422.77
2023-02-19T08:06:54.088Z,99421.71
2023-02-19T08:09:23.020Z,99425.59
2023-02-19T08:12:11.252Z,99423.45
2023-02-19T08:14:41.499Z,99428.16
2023-02-19T08:17:10.130Z,99420.66
2023-02-19T08:19:39.830Z,99425.53
2023-02-19T08:22:08.594Z,99422.81
2023-02-19T08:24:39.603Z,99433.52
2023-02-19T08:27:08.685Z,99437.78
2023-02-19T08:29:37.823Z,99448.97
2023-02-19T08:32:06.663Z,99443.20
2023-02-19T08:34:36.743Z,99447.42
2023-02-19T08:37:07.301Z,99449.30
2023-02-19T08:39:35.929Z,99451.27
2023-02-19T08:42:05.789Z,99449.05
2023-02-19T08:44:35.129Z,99445.43
2023-02-19T08:47:05.703Z,99446.98
2023-02-19T08:49:36.348Z,99434.86
2023-02-19T08:52:07.405Z,99442.25
2023-02-19T08:54:37.636Z,99445.88
2023-02-19T08:57:06.407Z,99436.28
2023-02-19T08:59:37.184Z,99455.83
2023-02-19T09:02:05.888Z,99439.22
2023-02-19T09:04:37.012Z,99435.66
2023-02-19T09:07:07.906Z,99436.84
2023-02-19T09:09:41.289Z,99435.58
2023-02-19T09:12:11.371Z,99430.11
2023-02-19T09:14:41.586Z,99439.05
2023-02-19T09:17:10.711Z,99425.11
2023-02-19T09:19:39.787Z,99420.20
2023-02-19T09:22:08.220Z,99435.58
2023-02-19T09:24:37.657Z,99427.05
2023-02-19T09:27:06.683Z,99438.64
2023-02-19T09:29:38.584Z,99426.98
2023-02-19T09:32:09.764Z,99415.50
2023-02-19T09:34:39.586Z,99428.92
2023-02-19T09:37:09.169Z,99424.89
2023-02-19T09:39:39.294Z,99445.05
2023-02-19T09:42:15.733Z,99444.53
2023-02-19T09:44:49.965Z,99441.67
2023-02-19T09:47:22.989Z,99442.73
2023-02-19T09:49:58.532Z,99450.54
2023-02-19T09:52:44.240Z,99451.86
2023-02-19T09:55:36.643Z,99440.50
2023-02-19T09:58:29.666Z,99432.70
2023-02-19T10:01:00.150Z,99418.80
2023-02-19T10:03:34.473Z,99417.96
2023-02-19T10:06:23.588Z,99401.66
2023-02-19T10:09:17.515Z,99408.91
2023-02-19T10:11:48.319Z,99396.33
2023-02-19T10:14:25.171Z,99403.55
2023-02-19T10:16:55.414Z,99381.62
2023-02-19T10:19:24.369Z,99375.49
2023-02-19T10:21:53.043Z,99385.17
2023-02-19T10:24:27.626Z,99377.17
2023-02-19T10:26:56.573Z,99377.46
2023-02-19T10:29:26.988Z,99377.09
2023-02-19T10:32:20.897Z,99372.32
2023-02-19T10:35:09.571Z,99357.77
2023-02-19T10:37:49.260Z,99351.54
2023-02-19T10:40:22.422Z,99351.03
2023-02-19T10:42:55.050Z,99351.69
2023-02-19T10:45:26.764Z,99341.16
2023-02-19T10:47:55.993Z,99339.47
2023-02-19T10:50:32.606Z,99337.45
2023-02-19T10:53:01.958Z,99324.08
2023-02-19T10:55:37.845Z,99316.64
2023-02-19T10:58:26.928Z,99314.77
2023-02-19T11:01:24.422Z,99310.84
2023-02-19T11:03:55.753Z,99306.07
2023-02-19T11:06:26.608Z,99296.05
2023-02-19T11:08:58.816Z,99292.31
2023-02-19T11:11:36.635Z,99289.78
2023-02-19T11:14:22.954Z,99280.94
2023-02-19T11:16:57.282Z,99282.25
2023-02-19T11:19:38.878Z,99275.88
2023-02-19T11:22:38.090Z,99275.45
2023-02-19T11:25:17.644Z,99273.38
2023-02-19T11:28:24.110Z,99272.16
2023-02-19T11:30:54.443Z,99270.80
2023-02-19T11:33:27.102Z,99276.75
2023-02-19T11:36:20.210Z,99254.44
2023-02-19T11:38:48.730Z,99264.50
2023-02-19T11:41:50.688Z,99259.65
2023-02-19T11:44:54.885Z,99263.72
2023-02-19T11:47:48.361Z,99257.96
2023-02-19T11:50:31.641Z,99268.25
2023-02-19T11:53:33.519Z,99269.42
2023-02-19T11:56:17.081Z,99281.25
2023-02-19T11:59:13.504Z,99272.13
2023-02-19T12:02:08.714Z,99276.72
2023-02-19T12:05:18.871Z,99271.94
2023-02-19T12:08:24.898Z,99273.95
2023-02-19T12:11:05.474Z,99273.19
2023-02-19T12:14:15.667Z,99273.60
2023-02-19T12:17:15.138Z,99275.74
2023-02-19T12:20:01.037Z,99272.81
2023-02-19T12:22:33.374Z,99277.21
2023-02-19T12:25:13.175Z,99274.82
2023-02-19T12:28:38.032Z,99271.45
2023-02-19T12:31:46.014Z,99273.52
2023-02-19T12:34:39.413Z,99270.83
2023-02-19T12:37:22.907Z,99267.47
2023-02-19T12:40:02.886Z,99268.69
2023-02-19T12:43:08.161Z,99268.87
2023-02-19T12:46:06.017Z,99278.70
2023-02-19T12:48:55.975Z,99279.55
2023-02-19T12:51:44.696Z,99279.59
2023-02-19T12:54:41.238Z,99277.13
2023-02-19T12:57:26.006Z,99282.56
2023-02-19T13:00:05.239Z,99280.17
2023-02-19T13:02:47.383Z,99287.14
2023-02-19T13:05:24.861Z,99291.73
2023-02-19T13:08:14.992Z,99292.25
2023-02-19T13:10:51.792Z,99292.38
2023-02-19T13:13:38.166Z,99289.67
2023-02-19T13:16:09.929Z,99294.13
2023-02-19T13:18:52.590Z,99288.55
2023-02-19T13:21:40.623Z,99288.77
2023-02-19T13:24:25.717Z,99277.21
2023-02-19T13:27:35.094Z,99278.63
2023-02-19T13:30:45.746Z,99274.28
2023-02-19T13:33:22.477Z,99280.79
2023-02-19T13:36:14.277Z,99282.85
2023-02-19T13:38:46.244Z,99274.57
2023-02-19T13:41:34.116Z,99266.95
2023-02-19T13:44:04.755Z,99273.35
2023-02-19T13:46:39.957Z,99275.50
2023-02-19T13:49:33.588Z,99268.72
2023-02-19T13:52:33.510Z,99280.73
2023-02-19T13:55:49.759Z,99272.45
2023-02-19T13:58:42.121Z,99270.83
2023-02-19T14:01:11.385Z,99278.27
2023-02-19T14:03:54.717Z,99273.48
2023-02-19T14:06:25.742Z,99276.39
2023-02-19T14:08:58.169Z,99277.61
2023-02-19T14:11:49.184Z,99275.93
2023-02-19T14:14:35.927Z,99279.86
2023-02-19T14:17:24.953Z,99284.59
2023-02-19T14:20:18.909Z,99285.23
2023-02-19T14:22:54.667Z,99284.72
2023-02-19T14:25:45.188Z,99289.31
2023-02-19T14:28:19.214Z,99282.91
2023-02-19T14:31:02.598Z,99285.80
2023-02-19T14:33:34.555Z,99287.67
2023-02-19T14:36:28.918Z,99284.45
2023-02-19T14:39:00.157Z,99280.89
2023-02-19T14:41:29.843Z,99276.69
2023-02-19T14:43:58.607Z,99277.91
2023-02-19T14:46:35.261Z,99279.78
2023-02-19T14:49:28.058Z,99281.65
2023-02-19T14:52:03.190Z,99285.06
2023-02-19T14:54:45.292Z,99291.38
2023-02-19T14:57:23.589Z,99286.14
2023-02-19T14:59:59.138Z,99283.10
2023-02-19T15:02:29.020Z,99283.61
2023-02-19T15:04:58.698Z,99289.23
2023-02-19T15:07:32.004Z,99287.03
2023-02-19T15:10:05.176Z,99289.41
2023-02-19T15:12:51.754Z,99295.17
2023-02-19T15:15:29.182Z,99291.80
2023-02-19T15:17:58.981Z,99292.83
2023-02-19T15:20:33.673Z,99292.50
2023-02-19T15:23:03.057Z,99292.17
2023-02-19T15:25:38.299Z,99296.25
2023-02-19T15:28:29.507Z,99298.95
2023-02-19T15:31:05.967Z,99308.13
2023-02-19T15:33:35.537Z,99313.22
2023-02-19T15:36:08.713Z,99320.84
2023-02-19T15:38:38.911Z,99320.52
2023-02-19T15:41:10.134Z,99316.31
2023-02-19T15:43:50.412Z,99319.02
2023-02-19T15:46:21.164Z,99322.25
2023-02-19T15:48:58.350Z,99326.83
2023-02-19T15:51:40.187Z,99325.14
2023-02-19T15:54:31.912Z,99327.87
2023-02-19T15:57:05.561Z,99326.37
2023-02-19T15:59:46.410Z,99328.23
2023-02-19T16:02:15.495Z,99332.30
2023-02-19T16:04:45.033Z,99330.63
2023-02-19T16:07:33.155Z,99326.41
2023-02-19T16:10:21.295Z,99324.25
2023-02-19T16:13:01.312Z,99333.60
2023-02-19T16:15:31.618Z,99338.87
2023-02-19T16:18:00.529Z,99341.11
2023-02-19T16:20:34.614Z,99337.37
2023-02-19T16:23:11.586Z,99337.89
2023-02-19T16:25:44.287Z,99336.72
2023-02-19T16:28:24.483Z,99346.91
2023-02-19T16:31:08.845Z,99344.38
2023-02-19T16:33:48.656Z,99344.38
2023-02-19T16:36:40.139Z,99341.52
2023-02-19T16:39:14.245Z,99340.67
2023-02-19T16:41:55.256Z,99348.48
2023-02-19T16:44:35.160Z,99348.48
2023-02-19T16:47:14.214Z,99351.89
2023-02-19T16:49:43.887Z,99354.60
2023-02-19T16:52:16.622Z,99358.33
2023-02-19T16:54:45.449Z,99361.05
2023-02-19T16:57:14.255Z,99351.55
2023-02-19T16:59:43.844Z,99352.59
2023-02-19T17:02:19.464Z,99351.74
2023-02-19T17:04:49.180Z,99349.21
2023-02-19T17:07:18.875Z,99350.42
2023-02-19T17:09:47.297Z,99353.64
2023-02-19T17:12:17.634Z,99342.14
2023-02-19T17:14:47.864Z,99342.17
2023-02-19T17:17:17.242Z,99344.26
2023-02-19T17:19:46.754Z,99339.05
2023-02-19T17:22:17.014Z,99338.20
2023-02-19T17:24:47.932Z,99330.27
2023-02-19T17:27:18.440Z,99337.22
2023-02-19T17:29:48.809Z,99339.59
2023-02-19T17:32:20.184Z,99351.82
2023-02-19T17:34:49.436Z,99345.73
2023-02-19T17:37:19.176Z,99351.00
2023-02-19T17:39:49.839Z,99344.95
2023-02-19T17:42:19.640Z,99354.61
2023-02-19T17:44:50.221Z,99345.49
2023-02-19T17:47:20.992Z,99353.28
2023-02-19T17:49:49.639Z,99348.89
2023-02-19T17:52:19.231Z,99356.51
2023-02-19T17:54:48.111Z,99351.60
2023-02-19T17:57:18.518Z,99355.66
2023-02-19T17:59:47.474Z,99366.32
2023-02-19T18:02:17.213Z,99367.85
2023-02-19T18:04:46.282Z,99368.52
2023-02-19T18:07:15.014Z,99364.27
2023-02-19T18:09:43.648Z,99359.70
2023-02-19T18:12:12.249Z,99357.14
2023-02-19T18:14:41.832Z,99360.52
2023-02-19T18:17:11.745Z,99363.55
2023-02-19T18:19:44.864Z,99368.47
2023-02-19T18:22:13.522Z,99370.15
2023-02-19T18:24:50.285Z,99376.92
2023-02-19T18:27:20.023Z,99380.66
2023-02-19T18:29:51.876Z,99386.22
2023-02-19T18:32:21.420Z,99386.41
2023-02-19T18:34:56.090Z,99388.78
2023-02-19T18:37:25.349Z,99393.36
2023-02-19T18:39:54.344Z,99396.94
2023-02-19T18:42:23.837Z,99403.89
2023-02-19T18:44:52.776Z,99410.33
2023-02-19T18:47:25.082Z,99398.98
2023-02-19T18:49:55.756Z,99399.00
2023-02-19T18:52:24.810Z,99397.67
2023-02-19T18:54:54.912Z,99411.39
2023-02-19T18:57:24.801Z,99408.20
2023-02-19T18:59:54.923Z,99402.98
2023-02-19T19:02:24.036Z,99401.13
2023-02-19T19:04:54.084Z,99403.86
2023-02-19T19:07:22.811Z,99404.55
2023-02-19T19:09:54.335Z,99407.09
2023-02-19T19:12:23.730Z,99409.31
2023-02-19T19:14:53.061Z,99411.02
2023-02-19T19:17:21.772Z,99405.78
2023-02-19T19:19:50.841Z,99409.51
2023-02-19T19:22:21.630Z,99404.60
2023-02-19T19:24:50.361Z,99412.41
2023-02-19T19:27:21.424Z,99421.86
2023-02-19T19:29:50.420Z,99426.44
2023-02-19T19:32:19.252Z,99428.64
2023-02-19T19:34:48.145Z,99438.29
2023-02-19T19:37:16.722Z,99444.21
2023-02-19T19:39:45.778Z,99456.39
2023-02-19T19:42:15.804Z,99454.53
2023-02-19T19:44:45.218Z,99458.92
2023-02-19T19:47:14.459Z,99466.53
2023-02-19T19:49:47.050Z,99467.03
2023-02-19T19:52:16.418Z,99467.03
2023-02-19T19:54:45.379Z,99476.68
2023-02-19T19:57:15.807Z,99477.86
2023-02-19T19:59:46.493Z,99481.92
2023-02-19T20:02:16.462Z,99477.19
2023-02-19T20:04:47.985Z,99483.11
2023-02-19T20:07:16.714Z,99484.64
2023-02-19T20:09:50.370Z,99484.98
2023-02-19T20:12:20.222Z,99485.84
2023-02-19T20:14:49.036Z,99497.17
2023-02-19T20:17:18.945Z,99503.44
2023-02-19T20:19:48.456Z,99499.55
2023-02-19T20:22:19.197Z,99505.64
2023-02-19T20:24:52.903Z,99497.02
2023-02-19T20:27:22.843Z,99503.13
2023-02-19T20:29:53.550Z,99509.20
2023-02-19T20:32:22.751Z,99509.22
2023-02-19T20:34:52.981Z,99518.01
2023-02-19T20:37:23.566Z,99511.92
2023-02-19T20:39:55.460Z,99520.37
2023-02-19T20:42:25.390Z,99527.64
2023-02-19T20:44:55.903Z,99523.41
2023-02-19T20:47:25.591Z,99524.05
2023-02-19T20:49:54.806Z,99537.07
2023-02-19T20:52:26.415Z,99531.83
2023-02-19T20:54:57.248Z,99542.48
2023-02-19T20:57:27.126Z,99547.20
2023-02-19T20:59:55.892Z,99545.84
2023-02-19T21:02:28.395Z,99551.76
2023-02-19T21:04:57.072Z,99554.62
2023-02-19T21:07:25.942Z,99558.17
2023-02-19T21:09:55.045Z,99556.14
2023-02-19T21:12:24.612Z,99564.92
2023-02-19T21:14:53.503Z,99566.10
2023-02-19T21:17:22.521Z,99560.52
2023-02-19T21:19:52.609Z,99565.93
2023-02-19T21:22:22.412Z,99563.56
2023-02-19T21:24:53.480Z,99573.36
2023-02-19T21:27:22.266Z,99573.36
2023-02-19T21:29:51.795Z,99573.02
2023-02-19T21:32:22.236Z,99569.97
2023-02-19T21:34:51.781Z,99574.20
2023-02-19T21:37:20.825Z,99577.39
2023-02-19T21:39:51.611Z,99582.28
2023-02-19T21:42:22.135Z,99591.23
2023-02-19T21:44:50.782Z,99582.63
2023-02-19T21:47:19.522Z,99589.87
2023-02-19T21:49:48.098Z,99594.42
2023-02-19T21:52:17.079Z,99596.11
2023-02-19T21:54:46.589Z,99600.98
2023-02-19T21:57:15.184Z,99599.64
2023-02-19T21:59:44.671Z,99600.65
2023-02-19T22:02:14.854Z,99602.00
2023-02-19T22:04:44.952Z,99605.53
2023-02-19T22:07:13.655Z,99603.16
2023-02-19T22:09:42.775Z,99613.26
2023-02-19T22:12:11.504Z,99610.34
2023-02-19T22:14:41.793Z,99615.75
2023-02-19T22:17:10.941Z,99606.63
2023-02-19T22:19:39.602Z,99619.28
2023-02-19T22:22:10.547Z,99607.28
2023-02-19T22:24:40.822Z,99605.59
2023-02-19T22:27:10.111Z,99603.90
2023-02-19T22:29:38.801Z,99615.71
2023-02-19T22:32:09.568Z,99620.06
2023-02-19T22:34:40.437Z,99620.70
2023-02-19T22:37:10.968Z,99628.97
2023-02-19T22:39:41.179Z,99623.56
2023-02-19T22:42:11.036Z,99614.96
2023-02-19T22:44:44.760Z,99626.93
2023-02-19T22:47:14.693Z,99623.70
2023-02-19T22:49:43.994Z,99629.77
2023-02-19T22:52:13.218Z,99623.67
2023-02-19T22:54:42.642Z,99629.40
2023-02-19T22:57:11.190Z,99630.22
2023-02-19T22:59:39.809Z,99634.77
2023-02-19T23:02:08.656Z,99633.77
2023-02-19T23:04:38.064Z,99632.41
2023-02-19T23:07:07.325Z,99631.73
2023-02-19T23:09:36.361Z,99632.89
2023-02-19T23:12:09.288Z,99637.26
2023-02-19T23:14:38.661Z,99639.42
2023-02-19T23:17:07.806Z,99642.28
2023-02-19T23:19:38.093Z,99647.18
2023-02-19T23:22:07.017Z,99648.03
2023-02-19T23:24:37.265Z,99645.48
2023-02-19T23:27:06.377Z,99646.65
2023-02-19T23:29:35.150Z,99644.11
2023-02-19T23:32:05.198Z,99644.77
2023-02-19T23:34:34.024Z,99647.12
2023-02-19T23:37:02.768Z,99654.37
2023-02-19T23:39:32.544Z,99654.03
2023-02-19T23:42:03.873Z,99657.23
2023-02-19T23:44:33.039Z,99657.23
2023-02-19T23:47:03.047Z,99654.03
2023-02-19T23:49:33.133Z,99651.64
2023-02-19T23:52:03.641Z,99651.77
2023-02-19T23:54:32.744Z,99650.57
2023-02-19T23:57:02.671Z,99655.63
2023-02-19T23:59:31.912Z,99655.28
